sensor_id;sensor_type;location;lat;lon;timestamp;noise_LAeq;noise_LA_min;noise_LA_max;noise_LA01;noise_LA95
66335;Laerm;53138;51.496;6.410;2024-01-16T00:00:05;41.91;39.41;45.11;;
66335;Laerm;53138;51.496;6.410;2024-01-16T00:00:15;42.21;39.97;48.59;;
66335;Laerm;53138;51.496;6.410;2024-01-16T00:00:25;42.03;38.75;46.35;;
66335;Laerm;53138;51.496;6.410;2024-01-16T00:00:35;41.98;39.71;44.36;;
66335;Laerm;53138;51.496;6.410;2024-01-16T00:00:46;42.06;39.56;45.60;;
66335;Laerm;53138;51.496;6.410;2024-01-16T00:00:56;42.12;39.68;44.53;;
66335;Laerm;53138;51.496;6.410;2024-01-16T00:01:07;42.25;39.01;49.17;;
66335;Laerm;53138;51.496;6.410;2024-01-16T00:01:17;41.80;39.31;50.99;;
66335;Laerm;53138;51.496;6.410;2024-01-16T00:01:28;41.85;38.82;46.46;;
66335;Laerm;53138;51.496;6.410;2024-01-16T00:01:41;41.97;38.94;44.75;;
66335;Laerm;53138;51.496;6.410;2024-01-16T00:01:51;41.99;39.56;44.69;;
66335;Laerm;53138;51.496;6.410;2024-01-16T00:02:01;42.19;39.43;45.03;;
66335;Laerm;53138;51.496;6.410;2024-01-16T00:02:12;42.18;39.71;44.87;;
66335;Laerm;53138;51.496;6.410;2024-01-16T00:02:22;41.67;38.99;47.12;;
66335;Laerm;53138;51.496;6.410;2024-01-16T00:02:32;41.72;39.07;45.14;;
66335;Laerm;53138;51.496;6.410;2024-01-16T00:02:43;42.22;39.67;45.32;;
66335;Laerm;53138;51.496;6.410;2024-01-16T00:02:53;42.17;38.14;46.17;;
66335;Laerm;53138;51.496;6.410;2024-01-16T00:03:03;42.53;39.46;55.19;;
66335;Laerm;53138;51.496;6.410;2024-01-16T00:03:14;42.47;39.02;52.03;;
66335;Laerm;53138;51.496;6.410;2024-01-16T00:03:24;42.09;39.55;49.16;;
66335;Laerm;53138;51.496;6.410;2024-01-16T00:03:34;42.62;39.24;51.87;;
66335;Laerm;53138;51.496;6.410;2024-01-16T00:03:44;41.86;38.86;44.75;;
66335;Laerm;53138;51.496;6.410;2024-01-16T00:03:55;42.54;39.36;54.76;;
66335;Laerm;53138;51.496;6.410;2024-01-16T00:04:05;42.17;39.52;45.63;;
66335;Laerm;53138;51.496;6.410;2024-01-16T00:04:15;42.62;39.60;48.93;;
66335;Laerm;53138;51.496;6.410;2024-01-16T00:04:25;42.31;39.52;46.39;;
66335;Laerm;53138;51.496;6.410;2024-01-16T00:04:37;42.47;39.93;46.01;;
66335;Laerm;53138;51.496;6.410;2024-01-16T00:04:47;42.74;39.48;52.16;;
66335;Laerm;53138;51.496;6.410;2024-01-16T00:04:58;42.59;39.80;49.65;;
66335;Laerm;53138;51.496;6.410;2024-01-16T00:05:08;42.59;40.05;45.57;;
66335;Laerm;53138;51.496;6.410;2024-01-16T00:05:19;42.96;39.83;50.70;;
66335;Laerm;53138;51.496;6.410;2024-01-16T00:05:29;43.23;40.85;45.88;;
66335;Laerm;53138;51.496;6.410;2024-01-16T00:05:40;42.84;40.01;45.72;;
66335;Laerm;53138;51.496;6.410;2024-01-16T00:05:50;42.64;39.83;48.06;;
66335;Laerm;53138;51.496;6.410;2024-01-16T00:06:00;42.71;39.59;48.98;;
66335;Laerm;53138;51.496;6.410;2024-01-16T00:06:11;43.63;39.68;54.62;;
66335;Laerm;53138;51.496;6.410;2024-01-16T00:06:22;43.21;40.62;47.46;;
66335;Laerm;53138;51.496;6.410;2024-01-16T00:06:32;43.47;40.34;49.75;;
66335;Laerm;53138;51.496;6.410;2024-01-16T00:06:42;43.23;40.39;51.64;;
66335;Laerm;53138;51.496;6.410;2024-01-16T00:06:53;42.77;40.44;49.03;;
66335;Laerm;53138;51.496;6.410;2024-01-16T00:07:03;42.82;39.89;46.46;;
66335;Laerm;53138;51.496;6.410;2024-01-16T00:07:14;42.93;40.52;45.14;;
66335;Laerm;53138;51.496;6.410;2024-01-16T00:07:24;42.94;40.02;46.37;;
66335;Laerm;53138;51.496;6.410;2024-01-16T00:07:37;43.65;40.70;49.97;;
66335;Laerm;53138;51.496;6.410;2024-01-16T00:07:47;45.72;40.88;60.19;;
66335;Laerm;53138;51.496;6.410;2024-01-16T00:07:57;43.10;39.58;48.99;;
66335;Laerm;53138;51.496;6.410;2024-01-16T00:08:09;42.94;40.06;45.91;;
66335;Laerm;53138;51.496;6.410;2024-01-16T00:08:20;43.36;40.27;51.38;;
66335;Laerm;53138;51.496;6.410;2024-01-16T00:08:30;43.10;40.33;45.16;;
66335;Laerm;53138;51.496;6.410;2024-01-16T00:08:40;43.11;40.21;45.81;;
66335;Laerm;53138;51.496;6.410;2024-01-16T00:08:50;43.06;39.55;45.77;;
66335;Laerm;53138;51.496;6.410;2024-01-16T00:09:00;43.14;40.44;46.20;;
66335;Laerm;53138;51.496;6.410;2024-01-16T00:09:11;43.11;39.93;50.40;;
66335;Laerm;53138;51.496;6.410;2024-01-16T00:09:21;47.18;40.77;59.49;;
66335;Laerm;53138;51.496;6.410;2024-01-16T00:09:34;43.38;40.38;51.03;;
66335;Laerm;53138;51.496;6.410;2024-01-16T00:09:44;43.35;40.06;51.30;;
66335;Laerm;53138;51.496;6.410;2024-01-16T00:09:55;43.45;40.55;55.01;;
66335;Laerm;53138;51.496;6.410;2024-01-16T00:10:08;43.08;40.06;47.06;;
66335;Laerm;53138;51.496;6.410;2024-01-16T00:10:19;43.15;39.78;45.83;;
66335;Laerm;53138;51.496;6.410;2024-01-16T00:10:29;43.53;40.82;53.79;;
66335;Laerm;53138;51.496;6.410;2024-01-16T00:10:39;45.14;40.79;58.20;;
66335;Laerm;53138;51.496;6.410;2024-01-16T00:10:50;43.36;40.90;46.03;;
66335;Laerm;53138;51.496;6.410;2024-01-16T00:11:01;43.07;39.99;50.31;;
66335;Laerm;53138;51.496;6.410;2024-01-16T00:11:11;43.31;40.32;50.91;;
66335;Laerm;53138;51.496;6.410;2024-01-16T00:11:22;43.03;39.73;48.81;;
66335;Laerm;53138;51.496;6.410;2024-01-16T00:11:32;43.30;40.23;46.18;;
66335;Laerm;53138;51.496;6.410;2024-01-16T00:11:42;43.37;40.26;48.54;;
66335;Laerm;53138;51.496;6.410;2024-01-16T00:11:53;42.86;39.61;46.45;;
66335;Laerm;53138;51.496;6.410;2024-01-16T00:12:03;42.90;40.11;48.98;;
66335;Laerm;53138;51.496;6.410;2024-01-16T00:12:16;42.65;40.18;45.38;;
66335;Laerm;53138;51.496;6.410;2024-01-16T00:12:26;42.67;39.81;45.16;;
66335;Laerm;53138;51.496;6.410;2024-01-16T00:12:36;42.91;40.56;45.86;;
66335;Laerm;53138;51.496;6.410;2024-01-16T00:12:47;42.61;39.59;45.41;;
66335;Laerm;53138;51.496;6.410;2024-01-16T00:12:57;43.03;39.70;49.76;;
66335;Laerm;53138;51.496;6.410;2024-01-16T00:13:07;43.03;40.00;45.99;;
66335;Laerm;53138;51.496;6.410;2024-01-16T00:13:17;42.95;40.28;45.66;;
66335;Laerm;53138;51.496;6.410;2024-01-16T00:13:28;42.96;40.06;45.88;;
66335;Laerm;53138;51.496;6.410;2024-01-16T00:13:38;43.20;40.42;46.31;;
66335;Laerm;53138;51.496;6.410;2024-01-16T00:13:48;43.31;40.20;50.37;;
66335;Laerm;53138;51.496;6.410;2024-01-16T00:13:58;43.47;40.63;53.49;;
66335;Laerm;53138;51.496;6.410;2024-01-16T00:14:09;43.15;40.09;50.17;;
66335;Laerm;53138;51.496;6.410;2024-01-16T00:14:19;43.01;40.31;45.59;;
66335;Laerm;53138;51.496;6.410;2024-01-16T00:14:29;43.42;40.68;51.27;;
66335;Laerm;53138;51.496;6.410;2024-01-16T00:14:40;43.27;40.67;48.41;;
66335;Laerm;53138;51.496;6.410;2024-01-16T00:14:50;43.09;40.50;45.38;;
66335;Laerm;53138;51.496;6.410;2024-01-16T00:15:00;43.31;40.33;45.91;;
66335;Laerm;53138;51.496;6.410;2024-01-16T00:15:10;43.25;40.91;45.84;;
66335;Laerm;53138;51.496;6.410;2024-01-16T00:15:20;44.53;40.49;59.96;;
66335;Laerm;53138;51.496;6.410;2024-01-16T00:15:31;43.67;41.08;49.22;;
66335;Laerm;53138;51.496;6.410;2024-01-16T00:15:42;43.72;40.97;46.27;;
66335;Laerm;53138;51.496;6.410;2024-01-16T00:15:52;43.68;41.21;46.69;;
66335;Laerm;53138;51.496;6.410;2024-01-16T00:16:02;43.68;40.73;48.85;;
66335;Laerm;53138;51.496;6.410;2024-01-16T00:16:13;43.77;41.02;48.24;;
66335;Laerm;53138;51.496;6.410;2024-01-16T00:16:24;43.62;40.57;46.35;;
66335;Laerm;53138;51.496;6.410;2024-01-16T00:16:41;43.63;40.80;46.42;;
66335;Laerm;53138;51.496;6.410;2024-01-16T00:16:51;44.07;41.01;52.59;;
66335;Laerm;53138;51.496;6.410;2024-01-16T00:17:01;44.13;40.72;50.27;;
66335;Laerm;53138;51.496;6.410;2024-01-16T00:17:11;44.27;41.33;49.98;;
66335;Laerm;53138;51.496;6.410;2024-01-16T00:17:22;44.11;40.85;46.61;;
66335;Laerm;53138;51.496;6.410;2024-01-16T00:17:32;43.87;40.92;47.66;;
66335;Laerm;53138;51.496;6.410;2024-01-16T00:17:42;43.68;40.06;48.79;;
66335;Laerm;53138;51.496;6.410;2024-01-16T00:17:52;43.90;39.86;46.89;;
66335;Laerm;53138;51.496;6.410;2024-01-16T00:18:03;44.17;41.37;49.63;;
66335;Laerm;53138;51.496;6.410;2024-01-16T00:18:13;43.92;40.97;46.51;;
66335;Laerm;53138;51.496;6.410;2024-01-16T00:18:24;44.04;40.85;46.95;;
66335;Laerm;53138;51.496;6.410;2024-01-16T00:18:34;44.19;41.49;52.03;;
66335;Laerm;53138;51.496;6.410;2024-01-16T00:18:44;44.13;41.37;47.10;;
66335;Laerm;53138;51.496;6.410;2024-01-16T00:18:54;44.26;41.41;49.50;;
66335;Laerm;53138;51.496;6.410;2024-01-16T00:19:05;44.44;41.39;48.46;;
66335;Laerm;53138;51.496;6.410;2024-01-16T00:19:15;44.35;41.33;51.25;;
66335;Laerm;53138;51.496;6.410;2024-01-16T00:19:25;43.90;41.18;46.19;;
66335;Laerm;53138;51.496;6.410;2024-01-16T00:19:36;43.84;40.51;46.92;;
66335;Laerm;53138;51.496;6.410;2024-01-16T00:19:46;43.80;40.72;47.52;;
66335;Laerm;53138;51.496;6.410;2024-01-16T00:19:56;43.79;40.95;47.55;;
66335;Laerm;53138;51.496;6.410;2024-01-16T00:20:10;43.99;41.30;48.23;;
66335;Laerm;53138;51.496;6.410;2024-01-16T00:20:21;43.89;40.75;46.45;;
66335;Laerm;53138;51.496;6.410;2024-01-16T00:20:33;44.22;41.23;47.18;;
66335;Laerm;53138;51.496;6.410;2024-01-16T00:20:43;44.21;40.99;47.28;;
66335;Laerm;53138;51.496;6.410;2024-01-16T00:20:53;44.09;41.07;46.87;;
66335;Laerm;53138;51.496;6.410;2024-01-16T00:21:04;44.10;41.52;46.21;;
66335;Laerm;53138;51.496;6.410;2024-01-16T00:21:14;44.13;41.19;46.90;;
66335;Laerm;53138;51.496;6.410;2024-01-16T00:21:24;44.12;41.70;52.12;;
66335;Laerm;53138;51.496;6.410;2024-01-16T00:21:44;44.48;41.64;47.27;;
66335;Laerm;53138;51.496;6.410;2024-01-16T00:21:57;44.59;41.70;49.71;;
66335;Laerm;53138;51.496;6.410;2024-01-16T00:22:08;44.14;41.49;46.07;;
66335;Laerm;53138;51.496;6.410;2024-01-16T00:22:18;43.95;41.27;46.63;;
66335;Laerm;53138;51.496;6.410;2024-01-16T00:22:28;45.10;41.28;60.33;;
66335;Laerm;53138;51.496;6.410;2024-01-16T00:22:38;44.00;41.63;46.19;;
66335;Laerm;53138;51.496;6.410;2024-01-16T00:22:49;44.09;41.45;47.19;;
66335;Laerm;53138;51.496;6.410;2024-01-16T00:22:59;44.34;41.23;46.97;;
66335;Laerm;53138;51.496;6.410;2024-01-16T00:23:09;44.20;41.58;46.62;;
66335;Laerm;53138;51.496;6.410;2024-01-16T00:23:20;44.50;41.48;51.35;;
66335;Laerm;53138;51.496;6.410;2024-01-16T00:23:30;44.29;40.81;52.32;;
66335;Laerm;53138;51.496;6.410;2024-01-16T00:23:42;44.35;41.51;50.46;;
66335;Laerm;53138;51.496;6.410;2024-01-16T00:23:52;44.26;40.97;49.01;;
66335;Laerm;53138;51.496;6.410;2024-01-16T00:24:02;44.10;41.46;48.09;;
66335;Laerm;53138;51.496;6.410;2024-01-16T00:24:13;44.25;41.43;50.64;;
66335;Laerm;53138;51.496;6.410;2024-01-16T00:24:23;43.98;41.69;46.38;;
66335;Laerm;53138;51.496;6.410;2024-01-16T00:24:34;44.33;40.98;46.81;;
66335;Laerm;53138;51.496;6.410;2024-01-16T00:24:44;44.28;41.03;49.94;;
66335;Laerm;53138;51.496;6.410;2024-01-16T00:24:54;44.22;41.72;49.92;;
66335;Laerm;53138;51.496;6.410;2024-01-16T00:25:04;44.06;41.09;46.50;;
66335;Laerm;53138;51.496;6.410;2024-01-16T00:25:15;44.68;41.83;55.84;;
66335;Laerm;53138;51.496;6.410;2024-01-16T00:25:25;44.09;40.72;50.84;;
66335;Laerm;53138;51.496;6.410;2024-01-16T00:25:35;44.46;42.00;50.85;;
66335;Laerm;53138;51.496;6.410;2024-01-16T00:25:46;44.14;40.86;48.53;;
66335;Laerm;53138;51.496;6.410;2024-01-16T00:25:56;44.21;41.17;46.64;;
66335;Laerm;53138;51.496;6.410;2024-01-16T00:26:06;44.27;40.70;50.55;;
66335;Laerm;53138;51.496;6.410;2024-01-16T00:26:20;44.10;41.40;49.01;;
66335;Laerm;53138;51.496;6.410;2024-01-16T00:26:30;44.22;41.17;50.63;;
66335;Laerm;53138;51.496;6.410;2024-01-16T00:26:41;43.91;41.22;46.80;;
66335;Laerm;53138;51.496;6.410;2024-01-16T00:26:51;43.96;40.82;51.34;;
66335;Laerm;53138;51.496;6.410;2024-01-16T00:27:01;44.06;40.96;53.53;;
66335;Laerm;53138;51.496;6.410;2024-01-16T00:27:11;43.94;40.85;52.70;;
66335;Laerm;53138;51.496;6.410;2024-01-16T00:27:21;43.97;41.11;48.13;;
66335;Laerm;53138;51.496;6.410;2024-01-16T00:27:32;44.14;41.49;52.48;;
66335;Laerm;53138;51.496;6.410;2024-01-16T00:27:42;43.85;40.27;48.37;;
66335;Laerm;53138;51.496;6.410;2024-01-16T00:27:54;43.78;40.66;45.99;;
66335;Laerm;53138;51.496;6.410;2024-01-16T00:28:04;44.10;40.74;46.87;;
66335;Laerm;53138;51.496;6.410;2024-01-16T00:28:14;43.74;41.47;46.45;;
66335;Laerm;53138;51.496;6.410;2024-01-16T00:28:25;43.96;40.84;46.57;;
66335;Laerm;53138;51.496;6.410;2024-01-16T00:28:35;43.98;41.17;46.83;;
66335;Laerm;53138;51.496;6.410;2024-01-16T00:28:45;43.94;41.11;46.94;;
66335;Laerm;53138;51.496;6.410;2024-01-16T00:28:56;43.97;40.93;46.56;;
66335;Laerm;53138;51.496;6.410;2024-01-16T00:29:06;43.94;40.63;48.86;;
66335;Laerm;53138;51.496;6.410;2024-01-16T00:29:16;44.26;41.75;47.18;;
66335;Laerm;53138;51.496;6.410;2024-01-16T00:29:26;43.86;41.11;46.08;;
66335;Laerm;53138;51.496;6.410;2024-01-16T00:29:37;44.08;41.70;46.71;;
66335;Laerm;53138;51.496;6.410;2024-01-16T00:29:48;43.97;40.83;50.18;;
66335;Laerm;53138;51.496;6.410;2024-01-16T00:29:58;43.75;41.25;46.23;;
66335;Laerm;53138;51.496;6.410;2024-01-16T00:30:08;43.93;41.15;46.71;;
66335;Laerm;53138;51.496;6.410;2024-01-16T00:30:19;43.95;41.19;46.78;;
66335;Laerm;53138;51.496;6.410;2024-01-16T00:30:29;43.84;40.31;46.34;;
66335;Laerm;53138;51.496;6.410;2024-01-16T00:30:39;43.49;40.67;46.62;;
66335;Laerm;53138;51.496;6.410;2024-01-16T00:30:49;43.98;40.89;47.06;;
66335;Laerm;53138;51.496;6.410;2024-01-16T00:31:00;43.61;40.73;45.85;;
66335;Laerm;53138;51.496;6.410;2024-01-16T00:31:10;44.22;40.47;52.89;;
66335;Laerm;53138;51.496;6.410;2024-01-16T00:31:20;44.05;41.13;46.53;;
66335;Laerm;53138;51.496;6.410;2024-01-16T00:31:30;44.02;41.55;48.52;;
66335;Laerm;53138;51.496;6.410;2024-01-16T00:31:41;44.17;41.37;46.54;;
66335;Laerm;53138;51.496;6.410;2024-01-16T00:31:51;44.32;41.57;47.56;;
66335;Laerm;53138;51.496;6.410;2024-01-16T00:32:01;43.87;41.19;49.37;;
66335;Laerm;53138;51.496;6.410;2024-01-16T00:32:12;43.94;41.28;47.99;;
66335;Laerm;53138;51.496;6.410;2024-01-16T00:32:25;43.74;41.15;50.54;;
66335;Laerm;53138;51.496;6.410;2024-01-16T00:32:36;44.00;41.33;47.34;;
66335;Laerm;53138;51.496;6.410;2024-01-16T00:32:46;44.06;41.19;46.89;;
66335;Laerm;53138;51.496;6.410;2024-01-16T00:32:57;44.51;41.64;50.21;;
66335;Laerm;53138;51.496;6.410;2024-01-16T00:33:08;44.60;41.03;48.12;;
66335;Laerm;53138;51.496;6.410;2024-01-16T00:33:19;44.30;41.59;47.02;;
66335;Laerm;53138;51.496;6.410;2024-01-16T00:33:29;44.03;41.15;47.74;;
66335;Laerm;53138;51.496;6.410;2024-01-16T00:33:40;43.39;40.10;46.62;;
66335;Laerm;53138;51.496;6.410;2024-01-16T00:33:50;43.41;40.53;48.41;;
66335;Laerm;53138;51.496;6.410;2024-01-16T00:34:00;43.35;40.32;46.36;;
66335;Laerm;53138;51.496;6.410;2024-01-16T00:34:11;43.59;40.87;46.54;;
66335;Laerm;53138;51.496;6.410;2024-01-16T00:34:21;43.83;40.96;46.37;;
66335;Laerm;53138;51.496;6.410;2024-01-16T00:34:31;43.54;40.04;46.11;;
66335;Laerm;53138;51.496;6.410;2024-01-16T00:34:42;43.37;40.94;45.65;;
66335;Laerm;53138;51.496;6.410;2024-01-16T00:34:52;43.34;40.85;46.94;;
66335;Laerm;53138;51.496;6.410;2024-01-16T00:35:02;43.28;40.74;46.08;;
66335;Laerm;53138;51.496;6.410;2024-01-16T00:35:14;43.39;40.32;45.88;;
66335;Laerm;53138;51.496;6.410;2024-01-16T00:35:24;43.60;41.07;50.10;;
66335;Laerm;53138;51.496;6.410;2024-01-16T00:35:34;44.86;41.65;47.89;;
66335;Laerm;53138;51.496;6.410;2024-01-16T00:35:44;47.13;42.63;54.03;;
66335;Laerm;53138;51.496;6.410;2024-01-16T00:35:55;43.81;40.66;49.89;;
66335;Laerm;53138;51.496;6.410;2024-01-16T00:36:05;43.48;40.77;46.17;;
66335;Laerm;53138;51.496;6.410;2024-01-16T00:36:15;43.57;40.55;46.26;;
66335;Laerm;53138;51.496;6.410;2024-01-16T00:36:25;43.89;40.75;52.19;;
66335;Laerm;53138;51.496;6.410;2024-01-16T00:36:36;43.50;40.40;45.85;;
66335;Laerm;53138;51.496;6.410;2024-01-16T00:36:46;43.87;41.20;50.49;;
66335;Laerm;53138;51.496;6.410;2024-01-16T00:36:56;43.76;41.18;47.04;;
66335;Laerm;53138;51.496;6.410;2024-01-16T00:37:06;43.80;41.11;49.61;;
66335;Laerm;53138;51.496;6.410;2024-01-16T00:37:16;44.70;40.39;59.15;;
66335;Laerm;53138;51.496;6.410;2024-01-16T00:37:27;43.62;40.47;46.69;;
66335;Laerm;53138;51.496;6.410;2024-01-16T00:37:37;43.64;40.69;45.91;;
66335;Laerm;53138;51.496;6.410;2024-01-16T00:37:47;43.89;41.46;46.50;;
66335;Laerm;53138;51.496;6.410;2024-01-16T00:37:58;43.81;41.32;46.72;;
66335;Laerm;53138;51.496;6.410;2024-01-16T00:38:08;44.15;41.25;47.48;;
66335;Laerm;53138;51.496;6.410;2024-01-16T00:38:18;43.96;40.98;46.41;;
66335;Laerm;53138;51.496;6.410;2024-01-16T00:38:28;43.86;40.91;46.36;;
66335;Laerm;53138;51.496;6.410;2024-01-16T00:38:38;44.05;41.13;46.65;;
66335;Laerm;53138;51.496;6.410;2024-01-16T00:38:49;43.81;40.68;46.09;;
66335;Laerm;53138;51.496;6.410;2024-01-16T00:38:59;43.86;40.72;46.49;;
66335;Laerm;53138;51.496;6.410;2024-01-16T00:39:09;43.72;40.98;46.81;;
66335;Laerm;53138;51.496;6.410;2024-01-16T00:39:20;43.91;41.10;48.69;;
66335;Laerm;53138;51.496;6.410;2024-01-16T00:39:30;44.11;40.69;46.71;;
66335;Laerm;53138;51.496;6.410;2024-01-16T00:39:40;44.07;41.35;46.56;;
66335;Laerm;53138;51.496;6.410;2024-01-16T00:39:50;43.75;39.99;47.65;;
66335;Laerm;53138;51.496;6.410;2024-01-16T00:40:00;43.92;40.82;47.00;;
66335;Laerm;53138;51.496;6.410;2024-01-16T00:40:11;44.43;41.32;47.26;;
66335;Laerm;53138;51.496;6.410;2024-01-16T00:40:21;44.23;41.18;46.78;;
66335;Laerm;53138;51.496;6.410;2024-01-16T00:40:31;44.14;41.33;47.12;;
66335;Laerm;53138;51.496;6.410;2024-01-16T00:40:41;44.25;41.48;46.65;;
66335;Laerm;53138;51.496;6.410;2024-01-16T00:40:52;44.63;41.60;55.75;;
66335;Laerm;53138;51.496;6.410;2024-01-16T00:41:02;44.29;41.45;49.10;;
66335;Laerm;53138;51.496;6.410;2024-01-16T00:41:12;44.35;41.80;49.09;;
66335;Laerm;53138;51.496;6.410;2024-01-16T00:41:25;44.38;41.57;50.11;;
66335;Laerm;53138;51.496;6.410;2024-01-16T00:41:35;44.18;41.47;47.48;;
66335;Laerm;53138;51.496;6.410;2024-01-16T00:41:45;44.28;40.62;47.70;;
66335;Laerm;53138;51.496;6.410;2024-01-16T00:41:55;44.35;41.90;46.98;;
66335;Laerm;53138;51.496;6.410;2024-01-16T00:42:06;44.05;41.05;46.65;;
66335;Laerm;53138;51.496;6.410;2024-01-16T00:42:16;43.94;41.30;46.39;;
66335;Laerm;53138;51.496;6.410;2024-01-16T00:42:26;44.04;40.81;47.06;;
66335;Laerm;53138;51.496;6.410;2024-01-16T00:42:37;43.99;40.38;46.44;;
66335;Laerm;53138;51.496;6.410;2024-01-16T00:42:47;44.26;41.11;52.09;;
66335;Laerm;53138;51.496;6.410;2024-01-16T00:42:57;44.36;41.75;48.70;;
66335;Laerm;53138;51.496;6.410;2024-01-16T00:43:07;44.55;41.58;46.69;;
66335;Laerm;53138;51.496;6.410;2024-01-16T00:43:18;43.84;41.07;46.84;;
66335;Laerm;53138;51.496;6.410;2024-01-16T00:43:28;43.61;40.17;45.94;;
66335;Laerm;53138;51.496;6.410;2024-01-16T00:43:39;43.98;41.26;46.20;;
66335;Laerm;53138;51.496;6.410;2024-01-16T00:43:49;43.91;40.83;46.81;;
66335;Laerm;53138;51.496;6.410;2024-01-16T00:43:59;44.10;41.27;46.81;;
66335;Laerm;53138;51.496;6.410;2024-01-16T00:44:10;43.93;41.29;46.11;;
66335;Laerm;53138;51.496;6.410;2024-01-16T00:44:20;43.98;41.08;47.63;;
66335;Laerm;53138;51.496;6.410;2024-01-16T00:44:31;44.10;41.35;49.30;;
66335;Laerm;53138;51.496;6.410;2024-01-16T00:44:41;44.04;40.70;46.20;;
66335;Laerm;53138;51.496;6.410;2024-01-16T00:44:51;44.01;41.33;46.99;;
66335;Laerm;53138;51.496;6.410;2024-01-16T00:45:01;44.40;40.81;47.22;;
66335;Laerm;53138;51.496;6.410;2024-01-16T00:45:12;44.09;41.35;46.81;;
66335;Laerm;53138;51.496;6.410;2024-01-16T00:45:22;44.20;41.42;46.43;;
66335;Laerm;53138;51.496;6.410;2024-01-16T00:45:32;44.39;41.65;47.13;;
66335;Laerm;53138;51.496;6.410;2024-01-16T00:45:42;44.30;40.61;48.93;;
66335;Laerm;53138;51.496;6.410;2024-01-16T00:45:52;44.21;41.39;46.50;;
66335;Laerm;53138;51.496;6.410;2024-01-16T00:46:03;44.19;41.06;46.60;;
66335;Laerm;53138;51.496;6.410;2024-01-16T00:46:13;44.56;41.64;50.23;;
66335;Laerm;53138;51.496;6.410;2024-01-16T00:46:23;44.65;41.49;50.66;;
66335;Laerm;53138;51.496;6.410;2024-01-16T00:46:34;46.67;41.21;55.49;;
66335;Laerm;53138;51.496;6.410;2024-01-16T00:46:44;44.68;41.53;55.67;;
66335;Laerm;53138;51.496;6.410;2024-01-16T00:46:54;44.15;40.86;47.94;;
66335;Laerm;53138;51.496;6.410;2024-01-16T00:47:04;43.89;41.22;46.81;;
66335;Laerm;53138;51.496;6.410;2024-01-16T00:47:15;44.17;41.76;51.16;;
66335;Laerm;53138;51.496;6.410;2024-01-16T00:47:25;44.14;41.36;49.85;;
66335;Laerm;53138;51.496;6.410;2024-01-16T00:47:36;44.35;41.50;47.52;;
66335;Laerm;53138;51.496;6.410;2024-01-16T00:47:46;44.08;40.89;46.57;;
66335;Laerm;53138;51.496;6.410;2024-01-16T00:47:56;44.08;41.35;48.26;;
66335;Laerm;53138;51.496;6.410;2024-01-16T00:48:06;43.75;40.72;46.70;;
66335;Laerm;53138;51.496;6.410;2024-01-16T00:48:19;44.00;41.10;46.48;;
66335;Laerm;53138;51.496;6.410;2024-01-16T00:48:30;43.85;40.98;52.32;;
66335;Laerm;53138;51.496;6.410;2024-01-16T00:48:41;43.68;40.80;46.59;;
66335;Laerm;53138;51.496;6.410;2024-01-16T00:48:51;43.84;41.00;47.62;;
66335;Laerm;53138;51.496;6.410;2024-01-16T00:49:01;43.68;40.69;46.68;;
66335;Laerm;53138;51.496;6.410;2024-01-16T00:49:11;43.68;40.91;46.46;;
66335;Laerm;53138;51.496;6.410;2024-01-16T00:49:22;43.76;41.06;46.42;;
66335;Laerm;53138;51.496;6.410;2024-01-16T00:49:32;43.83;41.14;46.92;;
66335;Laerm;53138;51.496;6.410;2024-01-16T00:49:42;43.54;40.80;46.87;;
66335;Laerm;53138;51.496;6.410;2024-01-16T00:49:52;43.96;40.40;47.16;;
66335;Laerm;53138;51.496;6.410;2024-01-16T00:50:03;43.92;40.96;49.43;;
66335;Laerm;53138;51.496;6.410;2024-01-16T00:50:13;43.58;40.89;46.20;;
66335;Laerm;53138;51.496;6.410;2024-01-16T00:50:23;43.38;41.03;45.80;;
66335;Laerm;53138;51.496;6.410;2024-01-16T00:50:34;44.03;40.96;47.32;;
66335;Laerm;53138;51.496;6.410;2024-01-16T00:50:44;43.66;40.16;50.90;;
66335;Laerm;53138;51.496;6.410;2024-01-16T00:50:56;43.60;40.35;48.53;;
66335;Laerm;53138;51.496;6.410;2024-01-16T00:51:06;43.96;41.70;46.80;;
66335;Laerm;53138;51.496;6.410;2024-01-16T00:51:16;44.33;41.57;48.77;;
66335;Laerm;53138;51.496;6.410;2024-01-16T00:51:26;43.88;41.07;47.23;;
66335;Laerm;53138;51.496;6.410;2024-01-16T00:51:37;43.94;40.65;47.04;;
66335;Laerm;53138;51.496;6.410;2024-01-16T00:51:47;43.80;41.24;46.13;;
66335;Laerm;53138;51.496;6.410;2024-01-16T00:51:57;43.60;40.92;45.84;;
66335;Laerm;53138;51.496;6.410;2024-01-16T00:52:09;43.83;40.50;47.55;;
66335;Laerm;53138;51.496;6.410;2024-01-16T00:52:20;43.95;41.10;47.28;;
66335;Laerm;53138;51.496;6.410;2024-01-16T00:52:30;44.26;41.49;49.42;;
66335;Laerm;53138;51.496;6.410;2024-01-16T00:52:40;44.42;41.78;48.81;;
66335;Laerm;53138;51.496;6.410;2024-01-16T00:52:50;44.05;41.40;46.67;;
66335;Laerm;53138;51.496;6.410;2024-01-16T00:53:01;43.99;41.21;47.06;;
66335;Laerm;53138;51.496;6.410;2024-01-16T00:53:11;43.98;41.28;48.29;;
66335;Laerm;53138;51.496;6.410;2024-01-16T00:53:21;43.73;40.60;46.96;;
66335;Laerm;53138;51.496;6.410;2024-01-16T00:53:31;43.71;40.56;46.32;;
66335;Laerm;53138;51.496;6.410;2024-01-16T00:53:42;43.42;40.34;46.54;;
66335;Laerm;53138;51.496;6.410;2024-01-16T00:53:52;43.25;40.51;45.95;;
66335;Laerm;53138;51.496;6.410;2024-01-16T00:54:03;43.49;40.93;46.42;;
66335;Laerm;53138;51.496;6.410;2024-01-16T00:54:13;43.60;40.52;46.20;;
66335;Laerm;53138;51.496;6.410;2024-01-16T00:54:23;43.73;40.98;45.86;;
66335;Laerm;53138;51.496;6.410;2024-01-16T00:54:33;43.84;41.40;46.11;;
66335;Laerm;53138;51.496;6.410;2024-01-16T00:54:44;43.44;40.71;45.87;;
66335;Laerm;53138;51.496;6.410;2024-01-16T00:54:54;43.45;40.41;46.11;;
66335;Laerm;53138;51.496;6.410;2024-01-16T00:55:04;43.34;40.72;45.47;;
66335;Laerm;53138;51.496;6.410;2024-01-16T00:55:15;43.68;41.09;46.93;;
66335;Laerm;53138;51.496;6.410;2024-01-16T00:55:25;43.41;40.63;46.17;;
66335;Laerm;53138;51.496;6.410;2024-01-16T00:55:35;43.54;41.11;46.78;;
66335;Laerm;53138;51.496;6.410;2024-01-16T00:55:45;43.31;40.59;45.76;;
66335;Laerm;53138;51.496;6.410;2024-01-16T00:55:56;43.21;40.42;46.44;;
66335;Laerm;53138;51.496;6.410;2024-01-16T00:56:06;43.48;40.27;48.54;;
66335;Laerm;53138;51.496;6.410;2024-01-16T00:56:16;43.17;40.69;46.40;;
66335;Laerm;53138;51.496;6.410;2024-01-16T00:56:26;43.30;40.70;46.04;;
66335;Laerm;53138;51.496;6.410;2024-01-16T00:56:42;43.24;39.85;45.92;;
66335;Laerm;53138;51.496;6.410;2024-01-16T00:56:52;43.29;40.82;46.16;;
66335;Laerm;53138;51.496;6.410;2024-01-16T00:57:05;43.63;40.15;46.90;;
66335;Laerm;53138;51.496;6.410;2024-01-16T00:57:16;43.47;40.78;46.98;;
66335;Laerm;53138;51.496;6.410;2024-01-16T00:57:29;43.57;40.85;46.37;;
66335;Laerm;53138;51.496;6.410;2024-01-16T00:57:39;43.60;40.58;46.25;;
66335;Laerm;53138;51.496;6.410;2024-01-16T00:57:49;43.35;39.77;46.44;;
66335;Laerm;53138;51.496;6.410;2024-01-16T00:57:59;43.46;40.85;46.88;;
66335;Laerm;53138;51.496;6.410;2024-01-16T00:58:10;43.55;40.07;46.08;;
66335;Laerm;53138;51.496;6.410;2024-01-16T00:58:21;43.37;40.93;46.54;;
66335;Laerm;53138;51.496;6.410;2024-01-16T00:58:31;43.37;40.15;46.51;;
66335;Laerm;53138;51.496;6.410;2024-01-16T00:58:41;43.27;40.92;45.47;;
66335;Laerm;53138;51.496;6.410;2024-01-16T00:58:52;43.48;40.36;49.76;;